East Rupert, Vermont
Current Conditions -  °F | °C
As of 8:55 AM on Monday 24 Nov 2014 (Local Time) from KRUT Reporting Station
Overcast Overcast  
Wind Chill: 52°   Ceiling: 3700
Heat Index: 52°   Visibility: 10mi
Dew Point: 48°   Wind: 16mph
Humidity: 88%   Direction: 130°SE
Pressure: 29.6"   Gusts: 25mph
Location:  43.358°N, 73.1349°W
Report Text: KRUT 241355Z 13014G22KT 10SM FEW029 BKN037 OVC048 11/09 A2960 RMK AO1
Loading
Personal Weather Stations






























Interactive Weather Map New forecast layout! Learn more

10-Day Weather Forecast

Advertisements
Track Severe Weather on mobile